Time,TemperatureF,DewpointF,PressureIn,WindDirection,WindDirectionDegrees,WindSpeedMPH,WindSpeedGustMPH,Humidity,HourlyPrecipIn,Conditions,Clouds,dailyrainin,SoftwareType,DateUTC
2013-04-30 00:02:00,47.0,10.0,-100.00,WNW,285,13.0,17.0,21,0.00,,,-99.99,,2013-04-30 06:02:00,
2013-04-30 00:12:00,47.0,10.0,-100.00,WNW,285,13.0,17.0,21,0.00,,,-99.99,,2013-04-30 06:12:00,
2013-04-30 00:21:00,49.0,11.0,-100.00,WNW,290,17.0,24.0,21,0.00,,,-99.99,,2013-04-30 06:21:00,
2013-04-30 00:32:00,46.0,10.0,-100.00,West,275,12.0,27.0,22,0.00,,,-99.99,,2013-04-30 06:32:00,
2013-04-30 00:41:00,47.0,10.0,-100.00,NW,325,11.0,16.0,22,0.00,,,-99.99,,2013-04-30 06:41:00,
2013-04-30 00:52:00,47.0,10.0,-100.00,West,280,15.0,22.0,22,0.00,,,-99.99,,2013-04-30 06:52:00,
2013-04-30 01:01:00,48.0,10.0,-100.00,West,270,13.0,22.0,21,0.00,,,-99.99,,2013-04-30 07:01:00,
2013-04-30 01:11:00,48.0,10.0,-100.00,West,270,11.0,23.0,21,0.00,,,-99.99,,2013-04-30 07:11:00,
2013-04-30 01:21:00,45.0,9.0,-100.00,West,280,11.0,18.0,22,0.00,,,-99.99,,2013-04-30 07:21:00,
2013-04-30 01:31:00,44.0,10.0,-100.00,West,275,8.0,14.0,24,0.00,,,-99.99,,2013-04-30 07:31:00,
2013-04-30 01:42:00,45.0,10.0,-100.00,WNW,285,13.0,17.0,23,0.00,,,-99.99,,2013-04-30 07:42:00,
2013-04-30 01:52:00,46.0,10.0,-100.00,West,275,12.0,16.0,23,0.00,,,-99.99,,2013-04-30 07:52:00,
2013-04-30 02:02:00,43.0,9.0,-100.00,WNW,285,10.0,13.0,24,0.00,,,-99.99,,2013-04-30 08:02:00,
2013-04-30 02:11:00,41.0,10.0,-100.00,WNW,295,8.0,11.0,26,0.00,,,-99.99,,2013-04-30 08:11:00,
2013-04-30 02:22:00,45.0,11.0,-100.00,West,275,8.0,12.0,24,0.00,,,-99.99,,2013-04-30 08:22:00,
2013-04-30 02:32:00,44.0,10.0,-100.00,WNW,295,7.0,10.0,24,0.00,,,-99.99,,2013-04-30 08:32:00,
2013-04-30 02:42:00,45.0,11.0,-100.00,NW,305,9.0,16.0,24,0.00,,,-99.99,,2013-04-30 08:42:00,
2013-04-30 02:52:00,47.0,12.0,-100.00,WNW,290,10.0,17.0,23,0.00,,,-99.99,,2013-04-30 08:52:00,
2013-04-30 03:01:00,46.0,10.0,-100.00,NW,315,6.0,11.0,22,0.00,,,-99.99,,2013-04-30 09:01:00,
2013-04-30 03:11:00,41.0,9.0,-100.00,NNE,15,2.0,12.0,26,0.00,,,-99.99,,2013-04-30 09:11:00,
2013-04-30 03:22:00,42.0,10.0,-100.00,West,270,7.0,9.0,26,0.00,,,-99.99,,2013-04-30 09:22:00,
2013-04-30 03:33:00,41.0,10.0,-100.00,NW,310,5.0,9.0,28,0.00,,,-99.99,,2013-04-30 09:33:00,
2013-04-30 03:43:00,40.0,10.0,-100.00,NNW,330,2.0,11.0,29,0.00,,,-99.99,,2013-04-30 09:43:00,
2013-04-30 03:52:00,44.0,13.0,-100.00,West,275,12.0,16.0,28,0.00,,,-99.99,,2013-04-30 09:52:00,
2013-04-30 04:03:00,45.0,13.0,-100.00,West,260,6.0,11.0,27,0.00,,,-99.99,,2013-04-30 10:03:00,
2013-04-30 04:11:00,46.0,13.0,-100.00,SSW,205,6.0,10.0,26,0.00,,,-99.99,,2013-04-30 10:11:00,
2013-04-30 04:22:00,44.0,12.0,-100.00,WSW,240,4.0,8.0,27,0.00,,,-99.99,,2013-04-30 10:22:00,
2013-04-30 04:32:00,43.0,12.0,-100.00,North,10,4.0,6.0,28,0.00,,,-99.99,,2013-04-30 10:32:00,
2013-04-30 04:41:00,41.0,11.0,-100.00,NNW,335,3.0,6.0,29,0.00,,,-99.99,,2013-04-30 10:41:00,
2013-04-30 04:52:00,41.0,12.0,-100.00,West,270,1.0,6.0,30,0.00,,,-99.99,,2013-04-30 10:52:00,
2013-04-30 05:02:00,42.0,12.0,-100.00,East,95,2.0,4.0,29,0.00,,,-99.99,,2013-04-30 11:02:00,
2013-04-30 05:11:00,42.0,12.0,-100.00,ESE,115,4.0,6.0,29,0.00,,,-99.99,,2013-04-30 11:11:00,
2013-04-30 05:21:00,42.0,12.0,-100.00,SW,235,2.0,7.0,29,0.00,,,-99.99,,2013-04-30 11:21:00,
2013-04-30 05:31:00,43.0,12.0,-100.00,ESE,110,4.0,6.0,28,0.00,,,-99.99,,2013-04-30 11:31:00,
2013-04-30 05:42:00,42.0,12.0,-100.00,ENE,75,7.0,9.0,29,0.00,,,-99.99,,2013-04-30 11:42:00,
2013-04-30 05:51:00,40.0,11.0,-100.00,ESE,110,2.0,6.0,30,0.00,,,-99.99,,2013-04-30 11:51:00,
2013-04-30 06:01:00,39.0,11.0,-100.00,SW,230,7.0,12.0,31,0.00,,,-99.99,,2013-04-30 12:01:00,
2013-04-30 06:11:00,37.0,11.0,-100.00,WNW,300,4.0,7.0,32,0.00,,,-99.99,,2013-04-30 12:11:00,
2013-04-30 06:21:00,38.0,12.0,-100.00,WNW,285,1.0,8.0,32,0.00,,,-99.99,,2013-04-30 12:21:00,
2013-04-30 06:31:00,37.0,11.0,-100.00,NE,35,1.0,7.0,33,0.00,,,-99.99,,2013-04-30 12:31:00,
2013-04-30 06:41:00,37.0,12.0,-100.00,ENE,75,5.0,7.0,35,0.00,,,-99.99,,2013-04-30 12:41:00,
2013-04-30 06:51:00,37.0,12.0,-100.00,West,265,2.0,7.0,35,0.00,,,-99.99,,2013-04-30 12:51:00,
2013-04-30 07:01:00,38.0,13.0,-100.00,ESE,120,4.0,6.0,35,0.00,,,-99.99,,2013-04-30 13:01:00,
2013-04-30 07:11:00,38.0,13.0,-100.00,East,100,8.0,10.0,35,0.00,,,-99.99,,2013-04-30 13:11:00,
2013-04-30 07:21:00,38.0,14.0,-100.00,WSW,245,4.0,7.0,36,0.00,,,-99.99,,2013-04-30 13:21:00,
2013-04-30 07:31:00,40.0,15.0,-100.00,NW,320,7.0,14.0,35,0.00,,,-99.99,,2013-04-30 13:31:00,
2013-04-30 07:41:00,44.0,16.0,-100.00,SW,235,6.0,11.0,32,0.00,,,-99.99,,2013-04-30 13:41:00,
2013-04-30 07:51:00,44.0,16.0,-100.00,South,185,5.0,8.0,31,0.00,,,-99.99,,2013-04-30 13:51:00,
2013-04-30 08:02:00,45.0,16.0,-100.00,SE,135,9.0,12.0,30,0.00,,,-99.99,,2013-04-30 14:02:00,
2013-04-30 08:11:00,45.0,16.0,-100.00,ESE,110,6.0,11.0,30,0.00,,,-99.99,,2013-04-30 14:11:00,
2013-04-30 08:21:00,45.0,16.0,-100.00,East,90,6.0,8.0,30,0.00,,,-99.99,,2013-04-30 14:21:00,
2013-04-30 08:31:00,46.0,17.0,-100.00,East,100,4.0,7.0,30,0.00,,,-99.99,,2013-04-30 14:31:00,
2013-04-30 08:41:00,47.0,17.0,-100.00,ESE,110,5.0,9.0,29,0.00,,,-99.99,,2013-04-30 14:41:00,
2013-04-30 08:52:00,48.0,17.0,-100.00,SSE,160,7.0,9.0,29,0.00,,,-99.99,,2013-04-30 14:52:00,
2013-04-30 09:01:00,48.0,17.0,-100.00,SE,130,6.0,10.0,28,0.00,,,-99.99,,2013-04-30 15:01:00,
2013-04-30 09:11:00,49.0,17.0,-100.00,East,100,3.0,6.0,28,0.00,,,-99.99,,2013-04-30 15:11:00,
2013-04-30 09:21:00,49.0,18.0,-100.00,South,175,9.0,11.0,28,0.00,,,-99.99,,2013-04-30 15:21:00,
2013-04-30 09:32:00,49.0,18.0,-100.00,SSE,160,7.0,12.0,28,0.00,,,-99.99,,2013-04-30 15:32:00,
2013-04-30 09:42:00,49.0,18.0,-100.00,SSE,160,7.0,12.0,28,0.00,,,-99.99,,2013-04-30 15:42:00,
2013-04-30 09:52:00,54.0,20.0,-100.00,South,190,15.0,19.0,25,0.00,,,-99.99,,2013-04-30 15:52:00,
2013-04-30 10:02:00,54.0,19.0,-100.00,South,185,13.0,23.0,25,0.00,,,-99.99,,2013-04-30 16:02:00,
2013-04-30 10:12:00,54.0,18.0,-100.00,WSW,245,8.0,21.0,24,0.00,,,-99.99,,2013-04-30 16:12:00,
2013-04-30 10:23:00,54.0,18.0,-100.00,SW,215,15.0,22.0,23,0.00,,,-99.99,,2013-04-30 16:23:00,
2013-04-30 10:33:00,55.0,18.0,-100.00,SW,230,19.0,27.0,23,0.00,,,-99.99,,2013-04-30 16:33:00,
2013-04-30 10:42:00,55.0,17.0,-100.00,SW,225,20.0,30.0,21,0.00,,,-99.99,,2013-04-30 16:42:00,
2013-04-30 10:52:00,55.0,16.0,-100.00,SW,215,14.0,27.0,21,0.00,,,-99.99,,2013-04-30 16:52:00,
2013-04-30 11:02:00,56.0,17.0,-100.00,SW,235,20.0,28.0,21,0.00,,,-99.99,,2013-04-30 17:02:00,
2013-04-30 11:12:00,56.0,17.0,-100.00,West,265,14.0,27.0,20,0.00,,,-99.99,,2013-04-30 17:12:00,
2013-04-30 11:22:00,57.0,17.0,-100.00,WSW,240,21.0,30.0,20,0.00,,,-99.99,,2013-04-30 17:22:00,
2013-04-30 11:32:00,56.0,16.0,-100.00,WSW,245,20.0,32.0,20,0.00,,,-99.99,,2013-04-30 17:32:00,
2013-04-30 11:42:00,59.0,18.0,-100.00,WSW,250,12.0,21.0,20,0.00,,,-99.99,,2013-04-30 17:42:00,
2013-04-30 11:52:00,58.0,17.0,-100.00,WSW,250,20.0,29.0,19,0.00,,,-99.99,,2013-04-30 17:52:00,
2013-04-30 12:01:00,56.0,17.0,-100.00,WSW,255,16.0,27.0,20,0.00,,,-99.99,,2013-04-30 18:01:00,
2013-04-30 12:11:00,56.0,16.0,-100.00,SW,230,17.0,27.0,20,0.00,,,-99.99,,2013-04-30 18:11:00,
2013-04-30 12:22:00,55.0,17.0,-100.00,West,270,14.0,34.0,21,0.00,,,-99.99,,2013-04-30 18:22:00,
2013-04-30 12:32:00,56.0,17.0,-100.00,West,270,19.0,26.0,21,0.00,,,-99.99,,2013-04-30 18:32:00,
2013-04-30 12:42:00,58.0,19.0,-100.00,WNW,290,9.0,17.0,21,0.00,,,-99.99,,2013-04-30 18:42:00,
2013-04-30 12:51:00,57.0,17.0,-100.00,SW,225,17.0,30.0,20,0.00,,,-99.99,,2013-04-30 18:51:00,
2013-04-30 13:01:00,58.0,18.0,-100.00,WSW,255,21.0,32.0,20,0.00,,,-99.99,,2013-04-30 19:01:00,
2013-04-30 13:11:00,58.0,17.0,-100.00,WSW,245,18.0,35.0,19,0.00,,,-99.99,,2013-04-30 19:11:00,
2013-04-30 13:22:00,58.0,18.0,-100.00,SSW,210,17.0,26.0,20,0.00,,,-99.99,,2013-04-30 19:22:00,
2013-04-30 13:32:00,57.0,17.0,-100.00,SW,230,17.0,25.0,20,0.00,,,-99.99,,2013-04-30 19:32:00,
2013-04-30 13:42:00,55.0,15.0,-100.00,SW,225,35.0,42.0,20,0.00,,,-99.99,,2013-04-30 19:42:00,
2013-04-30 13:52:00,58.0,18.0,-100.00,West,265,24.0,39.0,20,0.00,,,-99.99,,2013-04-30 19:52:00,
2013-04-30 14:02:00,61.0,20.0,-100.00,West,260,24.0,40.0,19,0.00,,,-99.99,,2013-04-30 20:02:00,
2013-04-30 14:11:00,58.0,17.0,-100.00,SW,230,30.0,40.0,19,0.00,,,-99.99,,2013-04-30 20:11:00,
2013-04-30 14:21:00,58.0,17.0,-100.00,SW,230,26.0,37.0,19,0.00,,,-99.99,,2013-04-30 20:21:00,
2013-04-30 14:32:00,57.0,17.0,-100.00,SW,235,21.0,33.0,20,0.00,,,-99.99,,2013-04-30 20:32:00,
2013-04-30 14:42:00,57.0,16.0,-100.00,WSW,250,22.0,30.0,19,0.00,,,-99.99,,2013-04-30 20:42:00,
2013-04-30 14:52:00,60.0,19.0,-100.00,SW,225,19.0,25.0,19,0.00,,,-99.99,,2013-04-30 20:52:00,
2013-04-30 15:02:00,60.0,18.0,-100.00,WSW,250,22.0,29.0,19,0.00,,,-99.99,,2013-04-30 21:02:00,
2013-04-30 15:11:00,58.0,17.0,-100.00,SW,230,25.0,34.0,19,0.00,,,-99.99,,2013-04-30 21:11:00,
2013-04-30 15:22:00,57.0,17.0,-100.00,SW,220,21.0,38.0,19,0.00,,,-99.99,,2013-04-30 21:22:00,
2013-04-30 15:32:00,59.0,18.0,-100.00,SW,230,25.0,32.0,19,0.00,,,-99.99,,2013-04-30 21:32:00,
2013-04-30 15:42:00,58.0,17.0,-100.00,SW,220,27.0,42.0,19,0.00,,,-99.99,,2013-04-30 21:42:00,
2013-04-30 15:52:00,58.0,17.0,-100.00,WSW,245,24.0,34.0,19,0.00,,,-99.99,,2013-04-30 21:52:00,
2013-04-30 16:02:00,58.0,17.0,-100.00,WSW,250,24.0,34.0,19,0.00,,,-99.99,,2013-04-30 22:02:00,
2013-04-30 16:12:00,57.0,16.0,-100.00,SW,235,21.0,34.0,19,0.00,,,-99.99,,2013-04-30 22:12:00,
2013-04-30 16:23:00,57.0,16.0,-100.00,SW,225,15.0,27.0,20,0.00,,,-99.99,,2013-04-30 22:23:00,
2013-04-30 16:32:00,57.0,17.0,-100.00,WSW,255,20.0,29.0,20,0.00,,,-99.99,,2013-04-30 22:32:00,
2013-04-30 16:42:00,58.0,17.0,-100.00,WSW,255,18.0,24.0,19,0.00,,,-99.99,,2013-04-30 22:42:00,
2013-04-30 16:52:00,57.0,17.0,-100.00,SW,230,18.0,27.0,20,0.00,,,-99.99,,2013-04-30 22:52:00,
2013-04-30 17:02:00,58.0,17.0,-100.00,WSW,240,17.0,25.0,19,0.00,,,-99.99,,2013-04-30 23:02:00,
2013-04-30 17:12:00,58.0,17.0,-100.00,WSW,250,17.0,26.0,19,0.00,,,-99.99,,2013-04-30 23:12:00,
2013-04-30 17:22:00,58.0,17.0,-100.00,West,260,16.0,26.0,19,0.00,,,-99.99,,2013-04-30 23:22:00,
2013-04-30 17:32:00,59.0,17.0,-100.00,SW,225,17.0,23.0,19,0.00,,,-99.99,,2013-04-30 23:32:00,
2013-04-30 17:42:00,56.0,15.0,-100.00,SW,235,14.0,22.0,20,0.00,,,-99.99,,2013-04-30 23:42:00,
2013-04-30 17:52:00,57.0,15.0,-100.00,SW,220,28.0,45.0,18,0.00,,,-99.99,,2013-04-30 23:52:00,
2013-04-30 18:02:00,56.0,14.0,-100.00,SW,235,27.0,37.0,18,0.00,,,-99.99,,2013-05-01 00:02:00,
2013-04-30 18:11:00,56.0,14.0,-100.00,WSW,240,24.0,39.0,18,0.00,,,-99.99,,2013-05-01 00:11:00,
2013-04-30 18:22:00,56.0,14.0,-100.00,WSW,240,23.0,32.0,18,0.00,,,-99.99,,2013-05-01 00:22:00,
2013-04-30 18:32:00,58.0,15.0,-100.00,SW,230,24.0,37.0,18,0.00,,,-99.99,,2013-05-01 00:32:00,
2013-04-30 18:42:00,56.0,14.0,-100.00,SW,230,21.0,36.0,18,0.00,,,-99.99,,2013-05-01 00:42:00,
2013-04-30 18:51:00,56.0,14.0,-100.00,SW,230,17.0,27.0,18,0.00,,,-99.99,,2013-05-01 00:51:00,
2013-04-30 19:01:00,57.0,15.0,-100.00,WSW,245,19.0,29.0,18,0.00,,,-99.99,,2013-05-01 01:01:00,
2013-04-30 19:11:00,55.0,13.0,-100.00,WSW,240,14.0,27.0,18,0.00,,,-99.99,,2013-05-01 01:11:00,
2013-04-30 19:21:00,54.0,13.0,-100.00,WSW,240,20.0,25.0,19,0.00,,,-99.99,,2013-05-01 01:21:00,
2013-04-30 19:32:00,54.0,14.0,-100.00,WSW,245,10.0,24.0,20,0.00,,,-99.99,,2013-05-01 01:32:00,
2013-04-30 19:42:00,54.0,14.0,-100.00,SW,230,21.0,27.0,20,0.00,,,-99.99,,2013-05-01 01:42:00,
2013-04-30 19:52:00,53.0,13.0,-100.00,SW,225,17.0,23.0,19,0.00,,,-99.99,,2013-05-01 01:52:00,
2013-04-30 20:02:00,53.0,13.0,-100.00,SW,230,13.0,22.0,20,0.00,,,-99.99,,2013-05-01 02:02:00,
2013-04-30 20:11:00,53.0,13.0,-100.00,SW,220,20.0,26.0,20,0.00,,,-99.99,,2013-05-01 02:11:00,
2013-04-30 20:21:00,52.0,13.0,-100.00,SW,235,15.0,28.0,20,0.00,,,-99.99,,2013-05-01 02:21:00,
2013-04-30 20:32:00,51.0,12.0,-100.00,WSW,250,11.0,19.0,21,0.00,,,-99.99,,2013-05-01 02:32:00,
2013-04-30 20:42:00,50.0,12.0,-100.00,WSW,250,11.0,17.0,21,0.00,,,-99.99,,2013-05-01 02:42:00,
2013-04-30 20:52:00,49.0,12.0,-100.00,WSW,255,11.0,14.0,21,0.00,,,-99.99,,2013-05-01 02:52:00,
2013-04-30 21:02:00,50.0,13.0,-100.00,SW,235,9.0,16.0,21,0.00,,,-99.99,,2013-05-01 03:02:00,
2013-04-30 21:11:00,49.0,13.0,-100.00,WSW,240,7.0,10.0,23,0.00,,,-99.99,,2013-05-01 03:11:00,
2013-04-30 21:21:00,48.0,13.0,-100.00,South,175,4.0,7.0,24,0.00,,,-99.99,,2013-05-01 03:21:00,
2013-04-30 21:33:00,45.0,17.0,-100.00,NE,55,10.0,13.0,32,0.00,,,-99.99,,2013-05-01 03:33:00,
2013-04-30 21:43:00,41.0,23.0,-100.00,NE,45,18.0,22.0,48,0.00,,,-99.99,,2013-05-01 03:43:00,
2013-04-30 21:53:00,41.0,26.0,-100.00,NE,40,20.0,24.0,54,0.00,,,-99.99,,2013-05-01 03:53:00,
2013-04-30 22:03:00,40.0,28.0,-100.00,NE,35,19.0,26.0,61,0.00,,,-99.99,,2013-05-01 04:03:00,
2013-04-30 22:12:00,39.0,29.0,-100.00,NE,35,19.0,27.0,67,0.00,,,-99.99,,2013-05-01 04:12:00,
2013-04-30 22:22:00,38.0,29.0,-100.00,NNE,25,16.0,25.0,70,0.00,,,-99.99,,2013-05-01 04:22:00,
2013-04-30 22:32:00,38.0,29.0,-100.00,NNE,20,14.0,21.0,71,0.00,,,-99.99,,2013-05-01 04:32:00,
2013-04-30 22:43:00,37.0,29.0,-100.00,NNE,25,14.0,20.0,72,0.00,,,-99.99,,2013-05-01 04:43:00,
2013-04-30 22:52:00,37.0,30.0,-100.00,North,5,11.0,18.0,73,0.00,,,-99.99,,2013-05-01 04:52:00,
2013-04-30 23:02:00,37.0,29.0,-100.00,North,5,9.0,15.0,74,0.00,,,-99.99,,2013-05-01 05:02:00,
2013-04-30 23:11:00,36.0,29.0,-100.00,NNE,25,11.0,15.0,75,0.00,,,-99.99,,2013-05-01 05:11:00,
2013-04-30 23:21:00,36.0,29.0,-100.00,North,10,11.0,16.0,76,0.00,,,-99.99,,2013-05-01 05:21:00,
2013-04-30 23:32:00,36.0,29.0,-100.00,NNE,15,11.0,18.0,76,0.00,,,-99.99,,2013-05-01 05:32:00,
2013-04-30 23:42:00,35.0,29.0,-100.00,NNE,15,11.0,16.0,77,0.00,,,-99.99,,2013-05-01 05:42:00,
2013-04-30 23:52:00,35.0,29.0,-100.00,NNE,25,9.0,13.0,79,0.00,,,-99.99,,2013-05-01 05:52:00,